Time;durP1;ratioP1;P1;durP2;ratioP2;P2;SDS_P1;SDS_P2;PMS_P1;PMS_P2;Temp;Humidity;BMP_temperature;BMP_pressure;BME280_temperature;BME280_humidity;BME280_pressure;Samples;Min_cycle;Max_cycle;Signal;HPM_P1;HPM_P2
2023/03/17 00:00:43;;;;;;;171.90;89.82;;;-0.20;1.00;;;;;;4907958;29;20048;-74
2023/03/17 00:03:16;;;;;;;189.63;99.60;;;-0.30;1.00;;;;;;4900594;29;20047;-72
2023/03/17 00:05:45;;;;;;;215.32;111.88;;;-0.40;1.00;;;;;;4902734;29;20055;-73
2023/03/17 00:08:19;;;;;;;179.68;94.68;;;-0.40;1.00;;;;;;4902706;29;20045;-73
2023/03/17 00:10:47;;;;;;;162.70;91.03;;;-0.50;1.00;;;;;;4902758;29;20515;-73
2023/03/17 00:13:15;;;;;;;167.63;86.00;;;-0.50;1.00;;;;;;4902304;29;20040;-74
2023/03/17 00:15:42;;;;;;;136.70;74.03;;;-0.50;1.00;;;;;;4902713;29;20044;-72
2023/03/17 00:18:14;;;;;;;160.68;89.45;;;-0.50;1.00;;;;;;4903560;29;20504;-74
2023/03/17 00:20:41;;;;;;;174.68;95.97;;;-0.50;1.00;;;;;;4902091;29;20040;-73
2023/03/17 00:23:15;;;;;;;163.70;88.15;;;-0.50;1.00;;;;;;4902361;29;20045;-73
2023/03/17 00:25:44;;;;;;;156.75;84.13;;;-0.50;1.00;;;;;;4901720;29;20557;-74
2023/03/17 00:28:17;;;;;;;160.57;86.70;;;-0.60;1.00;;;;;;4901713;29;20091;-74
2023/03/17 00:30:45;;;;;;;154.98;86.43;;;-0.60;1.00;;;;;;4904270;29;20059;-73
2023/03/17 00:33:14;;;;;;;156.70;88.20;;;-0.60;1.00;;;;;;4902068;29;20050;-73
2023/03/17 00:35:44;;;;;;;170.50;90.57;;;-0.60;1.00;;;;;;4906168;29;20049;-74
2023/03/17 00:38:16;;;;;;;173.93;92.85;;;-0.60;1.00;;;;;;4887095;29;20063;-74
2023/03/17 00:40:44;;;;;;;180.13;97.13;;;-0.70;1.00;;;;;;4901330;29;20394;-73
2023/03/17 00:43:13;;;;;;;179.00;96.78;;;-0.70;1.00;;;;;;4906743;29;20052;-72
2023/03/17 00:45:40;;;;;;;191.82;97.82;;;-0.70;1.00;;;;;;4908494;29;20048;-74
2023/03/17 00:48:14;;;;;;;173.13;96.63;;;-0.80;1.00;;;;;;4886039;29;20638;-73
2023/03/17 00:50:43;;;;;;;;;;;-0.80;1.00;;;;;;4903703;29;20487;-73
2023/03/17 00:53:14;;;;;;;158.75;90.30;;;-0.80;1.00;;;;;;4904370;29;20378;-75
2023/03/17 00:55:43;;;;;;;151.10;86.22;;;-0.90;1.00;;;;;;4886918;29;20483;-73
2023/03/17 00:58:14;;;;;;;146.48;83.50;;;-1.00;48.90;;;;;;4902999;29;20040;-74
2023/03/17 01:00:42;;;;;;;133.00;76.45;;;-1.00;99.90;;;;;;4904006;29;20040;-74
2023/03/17 01:03:11;;;;;;;103.22;59.10;;;-1.00;1.00;;;;;;4885227;29;20053;-72
2023/03/17 01:05:40;;;;;;;105.35;61.50;;;-1.00;99.90;;;;;;4886287;29;20079;-74
2023/03/17 01:08:10;;;;;;;107.85;60.58;;;-1.00;99.90;;;;;;4886929;29;20068;-72
2023/03/17 01:10:43;;;;;;;101.13;62.25;;;-1.00;99.90;;;;;;4908693;29;20041;-73
2023/03/17 01:13:13;;;;;;;131.95;75.47;;;-1.00;99.90;;;;;;4887134;29;20066;-76
2023/03/17 01:15:45;;;;;;;136.70;77.78;;;-1.10;99.90;;;;;;4901736;29;20071;-75
2023/03/17 01:18:15;;;;;;;136.30;77.35;;;-1.10;99.90;;;;;;4902131;29;20425;-74
2023/03/17 01:20:44;;;;;;;130.32;71.38;;;-1.10;99.90;;;;;;4904238;29;20048;-76
2023/03/17 01:23:12;;;;;;;133.45;74.43;;;-1.10;99.90;;;;;;4905957;29;20416;-75
2023/03/17 01:25:43;;;;;;;133.52;76.55;;;-1.20;99.90;;;;;;4901818;29;20047;-76
2023/03/17 01:28:15;;;;;;;139.13;78.82;;;-1.30;99.90;;;;;;4893929;29;20512;-75
2023/03/17 01:30:43;;;;;;;129.95;73.65;;;-1.30;99.90;;;;;;4886363;29;20424;-76
2023/03/17 01:33:13;;;;;;;106.13;61.08;;;-1.30;1.00;;;;;;4908514;29;20512;-76
2023/03/17 01:35:42;;;;;;;103.03;60.78;;;-1.30;1.00;;;;;;4876916;29;20049;-76
2023/03/17 01:38:10;;;;;;;105.72;60.97;;;-1.20;1.00;;;;;;4903040;29;20064;-77
2023/03/17 01:40:42;;;;;;;105.63;62.63;;;-1.20;99.90;;;;;;4901396;29;20052;-75
2023/03/17 01:43:20;;;;;;;108.68;60.90;;;-1.30;99.90;;;;;;4902325;29;20052;-75
2023/03/17 01:46:23;;;;;;;93.85;52.50;;;-1.30;99.90;;;;;;4886294;29;20064;-75
2023/03/17 01:49:03;;;;;;;102.25;60.63;;;-1.30;99.90;;;;;;4809366;29;20050;-75
2023/03/17 01:51:34;;;;;;;102.57;57.08;;;-1.40;99.90;;;;;;4811510;29;20074;-74
2023/03/17 01:54:05;;;;;;;100.13;59.53;;;-1.40;99.90;;;;;;4828456;29;20090;-77
2023/03/17 01:56:34;;;;;;;92.68;56.10;;;-1.50;99.90;;;;;;4810876;29;20058;-75
2023/03/17 01:59:08;;;;;;;96.65;57.97;;;-1.50;1.00;;;;;;4829034;29;20086;-75
2023/03/17 02:01:41;;;;;;;88.13;51.63;;;-1.40;1.00;;;;;;4826425;29;20054;-75
2023/03/17 02:04:10;;;;;;;101.18;54.78;;;-1.40;1.00;;;;;;4828867;29;20130;-74
2023/03/17 02:06:40;;;;;;;89.80;52.42;;;-1.30;1.00;;;;;;4829719;29;20050;-75
2023/03/17 02:09:08;;;;;;;80.90;48.03;;;-1.40;99.90;;;;;;4829129;29;20115;-74
2023/03/17 02:11:36;;;;;;;76.85;45.45;;;-1.40;99.90;;;;;;4829366;29;20068;-76
2023/03/17 02:14:05;;;;;;;81.10;49.50;;;-1.50;99.90;;;;;;4827691;29;20533;-76
2023/03/17 02:16:33;;;;;;;89.35;51.35;;;-1.50;99.90;;;;;;4826655;29;20084;-76
2023/03/17 02:19:00;;;;;;;92.03;51.92;;;-1.50;99.90;;;;;;4842337;29;20044;-75
2023/03/17 02:21:40;;;;;;;84.15;51.22;;;-1.50;1.00;;;;;;4905060;29;20071;-74
2023/03/17 02:24:16;;;;;;;90.28;53.70;;;-1.50;1.00;;;;;;4911796;29;20079;-75
2023/03/17 02:26:45;;;;;;;94.55;57.15;;;-1.50;99.90;;;;;;4903648;29;20044;-75
2023/03/17 02:29:13;;;;;;;110.10;62.70;;;-1.60;99.90;;;;;;4888082;29;20171;-75
2023/03/17 02:31:41;;;;;;;104.15;61.85;;;-1.60;99.90;;;;;;4904004;29;20052;-76
2023/03/17 02:34:09;;;;;;;109.10;62.90;;;-1.70;99.90;;;;;;4905078;29;20037;-76
2023/03/17 02:36:38;;;;;;;103.30;61.60;;;-1.70;99.90;;;;;;4903122;29;20045;-76
2023/03/17 02:39:06;;;;;;;94.15;56.55;;;-1.70;1.00;;;;;;4905075;29;20040;-75
2023/03/17 02:41:33;;;;;;;90.63;53.05;;;-1.70;1.00;;;;;;4887161;29;20044;-75
2023/03/17 02:44:01;;;;;;;94.00;51.63;;;-1.70;1.00;;;;;;4887766;29;20036;-75
2023/03/17 02:46:28;;;;;;;80.65;46.15;;;-1.60;99.90;;;;;;4888750;29;20147;-76
2023/03/17 02:49:00;;;;;;;84.85;48.42;;;-1.60;99.90;;;;;;4909008;29;20049;-76
2023/03/17 02:51:28;;;;;;;87.60;50.30;;;-1.70;99.90;;;;;;4887678;29;20076;-76
2023/03/17 02:53:58;;;;;;;87.72;50.55;;;-1.70;99.90;;;;;;4903980;29;20048;-75
2023/03/17 02:56:25;;;;;;;92.22;51.95;;;-1.70;99.90;;;;;;4903753;29;20066;-75
2023/03/17 02:58:53;;;;;;;92.43;56.30;;;-1.70;99.90;;;;;;4888547;29;20523;-75
2023/03/17 03:01:21;;;;;;;93.13;55.42;;;-1.70;99.90;;;;;;4901420;29;20116;-75
2023/03/17 03:03:48;;;;;;;96.53;55.88;;;-1.70;99.90;;;;;;4903964;29;20053;-75
2023/03/17 03:06:16;;;;;;;93.60;54.45;;;-1.70;99.90;;;;;;4904529;29;20047;-76
2023/03/17 03:08:43;;;;;;;79.72;49.72;;;-1.80;99.90;;;;;;4886248;29;20052;-76
2023/03/17 03:11:13;;;;;;;75.60;43.95;;;-1.80;99.90;;;;;;4903261;29;20044;-74
2023/03/17 03:13:40;;;;;;;74.45;45.92;;;-1.70;99.90;;;;;;4904122;29;20070;-74
2023/03/17 03:16:08;;;;;;;78.78;46.95;;;-1.80;99.90;;;;;;4904736;29;20051;-75
2023/03/17 03:18:36;;;;;;;79.22;48.30;;;-1.80;99.90;;;;;;4903225;29;20095;-76
2023/03/17 03:21:04;;;;;;;82.68;47.47;;;-1.80;99.90;;;;;;4905828;29;20051;-76
2023/03/17 03:23:31;;;;;;;78.97;45.22;;;-1.80;99.90;;;;;;4887163;29;20044;-75
2023/03/17 03:25:59;;;;;;;79.32;47.33;;;-1.80;30.00;;;;;;4904388;29;20043;-75
2023/03/17 03:28:28;;;;;;;72.97;42.28;;;-1.80;89.30;;;;;;4910388;29;20060;-75
2023/03/17 03:30:55;;;;;;;89.32;45.55;;;-1.90;1.00;;;;;;4903700;29;20044;-76
2023/03/17 03:33:23;;;;;;;90.57;51.03;;;-1.90;1.00;;;;;;4902719;29;20092;-75
2023/03/17 03:35:50;;;;;;;85.88;51.83;;;-2.00;80.10;;;;;;4903752;29;20055;-75
2023/03/17 03:38:18;;;;;;;91.95;53.88;;;-2.00;99.90;;;;;;4889256;29;20084;-75
2023/03/17 03:40:45;;;;;;;99.60;57.72;;;-2.00;99.90;;;;;;4904636;29;20045;-76
2023/03/17 03:43:13;;;;;;;86.00;48.60;;;-2.00;99.90;;;;;;4887700;29;20051;-76
2023/03/17 03:45:42;;;;;;;74.95;43.65;;;-1.90;99.90;;;;;;4904878;29;20052;-76
2023/03/17 03:48:10;;;;;;;68.28;41.83;;;-2.00;99.90;;;;;;4906970;29;20179;-75
2023/03/17 03:50:38;;;;;;;74.20;46.08;;;-2.00;99.90;;;;;;4892595;29;20397;-75
2023/03/17 03:53:06;;;;;;;74.22;44.55;;;-2.10;99.90;;;;;;4904103;29;20036;-75
2023/03/17 03:55:33;;;;;;;73.82;46.92;;;-2.10;99.90;;;;;;4899783;29;20048;-76
2023/03/17 03:58:00;;;;;;;93.47;56.33;;;-2.20;99.30;;;;;;4904065;29;20054;-75
2023/03/17 04:00:28;;;;;;;92.72;57.28;;;-2.20;99.90;;;;;;4903496;29;20044;-75
2023/03/17 04:02:57;;;;;;;88.22;54.25;;;-2.30;99.90;;;;;;4902643;29;20097;-75
2023/03/17 04:05:24;;;;;;;78.75;50.10;;;-2.30;99.90;;;;;;4901520;29;20127;-76
2023/03/17 04:07:52;;;;;;;74.80;47.28;;;-2.20;99.90;;;;;;4901285;29;20047;-76
2023/03/17 04:10:21;;;;;;;69.30;43.20;;;-2.20;99.90;;;;;;4906274;29;20076;-75
2023/03/17 04:12:49;;;;;;;75.00;44.38;;;-2.20;99.90;;;;;;4903962;29;20423;-75
2023/03/17 04:15:18;;;;;;;79.22;44.72;;;-2.20;99.90;;;;;;4917487;29;20512;-75
2023/03/17 04:17:46;;;;;;;68.57;41.33;;;-2.30;99.90;;;;;;4908916;29;20099;-75
2023/03/17 04:20:16;;;;;;;61.80;37.08;;;-2.30;99.90;;;;;;4909204;29;20052;-76
2023/03/17 04:22:44;;;;;;;57.22;34.97;;;-2.30;99.90;;;;;;4903295;29;20087;-76
2023/03/17 04:25:13;;;;;;;57.83;35.88;;;-2.30;99.90;;;;;;4904128;29;20050;-76
2023/03/17 04:27:41;;;;;;;62.88;37.33;;;-2.30;99.90;;;;;;4901953;29;20127;-76
2023/03/17 04:30:12;;;;;;;67.72;39.13;;;-2.30;99.90;;;;;;4896388;29;20056;-76
2023/03/17 04:32:40;;;;;;;61.13;38.60;;;-2.30;99.90;;;;;;4902352;29;20088;-75
2023/03/17 04:35:09;;;;;;;65.22;38.38;;;-2.20;99.90;;;;;;4903401;29;20045;-76
2023/03/17 04:37:38;;;;;;;65.97;39.63;;;-2.40;1.00;;;;;;4902331;29;20036;-79
2023/03/17 04:40:08;;;;;;;74.85;44.38;;;-2.40;31.20;;;;;;4902211;29;20044;-76
2023/03/17 04:42:36;;;;;;;70.05;42.22;;;-2.40;99.90;;;;;;4883316;29;20446;-76
2023/03/17 04:45:04;;;;;;;73.40;39.60;;;-2.30;99.90;;;;;;4902763;29;20032;-76
2023/03/17 04:47:31;;;;;;;72.22;42.50;;;-2.40;99.90;;;;;;4885191;29;20054;-76
2023/03/17 04:49:58;;;;;;;76.25;44.75;;;-2.40;61.00;;;;;;4902013;29;20591;-75
2023/03/17 04:52:26;;;;;;;60.88;36.65;;;-2.40;1.00;;;;;;4900128;29;20053;-75
2023/03/17 04:54:55;;;;;;;60.70;37.75;;;-2.40;9.80;;;;;;4900762;29;20202;-75
2023/03/17 04:57:23;;;;;;;65.00;38.78;;;-2.40;36.80;;;;;;4900866;29;20043;-75
2023/03/17 04:59:50;;;;;;;68.82;40.45;;;-2.40;1.00;;;;;;4902523;29;20129;-76
2023/03/17 05:02:18;;;;;;;77.15;43.95;;;-2.40;79.50;;;;;;4901314;29;20131;-77
2023/03/17 05:04:46;;;;;;;78.28;42.75;;;-2.40;99.80;;;;;;4901301;29;20041;-76
2023/03/17 05:07:14;;;;;;;72.13;41.35;;;-2.30;54.50;;;;;;4903820;29;20501;-76
2023/03/17 05:09:43;;;;;;;73.20;44.63;;;-2.30;1.00;;;;;;4902528;29;20120;-75
2023/03/17 05:12:13;;;;;;;74.28;44.83;;;-2.30;1.00;;;;;;4884702;29;20498;-76
2023/03/17 05:14:41;;;;;;;75.15;43.92;;;-2.20;1.00;;;;;;4903440;29;20045;-76
2023/03/17 05:17:08;;;;;;;74.70;44.08;;;-2.20;1.00;;;;;;4902172;29;20124;-76
2023/03/17 05:19:36;;;;;;;75.25;46.38;;;-2.20;1.00;;;;;;4902236;29;20048;-74
2023/03/17 05:22:04;;;;;;;77.90;47.05;;;-2.30;1.00;;;;;;4902622;29;20041;-75
2023/03/17 05:24:31;;;;;;;76.95;44.72;;;-2.30;1.00;;;;;;4902457;29;20044;-74
2023/03/17 05:26:58;;;;;;;74.47;46.45;;;-2.30;1.00;;;;;;4906436;29;20186;-75
2023/03/17 05:29:27;;;;;;;74.35;43.28;;;-2.20;1.00;;;;;;4906175;29;20146;-75
2023/03/17 05:31:55;;;;;;;74.65;43.85;;;-2.10;1.00;;;;;;4906956;29;20044;-76
2023/03/17 05:34:22;;;;;;;80.70;46.97;;;-2.10;1.00;;;;;;4908101;29;20080;-77
2023/03/17 05:36:50;;;;;;;96.55;57.92;;;-1.90;1.00;;;;;;4907564;29;20131;-75
2023/03/17 05:39:17;;;;;;;90.88;51.15;;;-1.80;1.00;;;;;;4907988;29;20044;-76
2023/03/17 05:41:45;;;;;;;100.10;58.20;;;-1.70;1.00;;;;;;4906352;29;20070;-75
2023/03/17 05:44:13;;;;;;;105.30;63.63;;;-1.60;1.00;;;;;;4906035;29;20560;-75
2023/03/17 05:46:42;;;;;;;121.05;69.25;;;-1.50;1.00;;;;;;4887346;29;20055;-76
2023/03/17 05:49:09;;;;;;;133.40;76.78;;;-1.30;99.90;;;;;;4906522;29;20048;-75
2023/03/17 05:51:37;;;;;;;145.20;85.05;;;-1.20;99.90;;;;;;4891794;29;20064;-77
2023/03/17 05:54:04;;;;;;;140.55;82.28;;;-1.10;99.90;;;;;;4908516;29;20048;-76
2023/03/17 05:56:33;;;;;;;120.40;71.28;;;-1.00;99.90;;;;;;4891901;29;20048;-77
2023/03/17 05:59:01;;;;;;;117.30;65.85;;;-0.80;95.50;;;;;;4890960;29;20445;-76
2023/03/17 06:01:28;;;;;;;106.18;60.53;;;-0.60;6.10;;;;;;4907947;29;20696;-75
2023/03/17 06:03:59;;;;;;;113.75;65.63;;;-0.50;1.00;;;;;;4909558;29;20041;-76
2023/03/17 06:06:27;;;;;;;104.10;59.08;;;-0.30;1.00;;;;;;4905721;29;20040;-74
2023/03/17 06:08:55;;;;;;;106.28;53.70;;;-0.20;1.00;;;;;;4893866;29;20049;-75
2023/03/17 06:11:22;;;;;;;89.32;49.38;;;-0.10;1.00;;;;;;4910272;29;20055;-76
2023/03/17 06:13:49;;;;;;;85.78;44.17;;;0.10;1.00;;;;;;4910670;29;20063;-76
2023/03/17 06:16:17;;;;;;;75.25;40.05;;;0.30;1.00;;;;;;4909639;29;20052;-75
2023/03/17 06:18:45;;;;;;;69.50;35.75;;;0.50;1.00;;;;;;4910468;29;20048;-74
2023/03/17 06:21:14;;;;;;;56.95;30.83;;;0.70;1.00;;;;;;4892879;29;20482;-74
2023/03/17 06:23:42;;;;;;;57.78;30.05;;;0.90;1.00;;;;;;4912613;29;20563;-74
2023/03/17 06:26:09;;;;;;;66.07;35.28;;;1.10;1.00;;;;;;4914952;29;20048;-75
2023/03/17 06:28:37;;;;;;;73.40;41.30;;;1.30;1.00;;;;;;4914790;29;20060;-75
2023/03/17 06:31:05;;;;;;;71.47;39.75;;;1.40;1.00;;;;;;4911733;29;20052;-76
2023/03/17 06:33:33;;;;;;;74.07;41.05;;;1.50;1.00;;;;;;4910742;29;20051;-75
2023/03/17 06:38:54;;;;;;;110.63;59.78;;;1.50;1.00;;;;;;4902365;29;20060;-76
2023/03/17 06:41:21;;;;;;;118.50;66.40;;;1.60;1.00;;;;;;4909568;29;20049;-75
2023/03/17 06:43:49;;;;;;;107.90;61.28;;;1.70;1.00;;;;;;4885395;29;20041;-75
2023/03/17 06:46:16;;;;;;;104.93;54.17;;;1.90;1.00;;;;;;4902105;29;20040;-78
2023/03/17 06:48:44;;;;;;;95.57;50.13;;;2.20;1.00;;;;;;4883894;29;20052;-75
2023/03/17 06:51:11;;;;;;;93.00;51.90;;;2.30;1.00;;;;;;4888019;23;20123;-81
2023/03/17 06:53:38;;;;;;;100.65;55.95;;;2.40;1.00;;;;;;4908037;29;20058;-81
2023/03/17 06:56:09;;;;;;;95.38;55.75;;;2.50;1.00;;;;;;4909621;29;20044;-81
2023/03/17 06:58:36;;;;;;;96.25;53.65;;;2.80;1.00;;;;;;4910847;29;20079;-78
2023/03/17 07:01:04;;;;;;;96.07;53.50;;;2.90;1.00;;;;;;4929131;29;20443;-79
2023/03/17 07:03:31;;;;;;;97.68;54.03;;;3.30;1.00;;;;;;4925363;29;20047;-79
2023/03/17 07:06:00;;;;;;;85.95;50.58;;;3.70;1.00;;;;;;4926585;29;20044;-80
2023/03/17 07:08:29;;;;;;;86.68;49.03;;;3.90;1.00;;;;;;4924853;29;20067;-82
2023/03/17 07:11:00;;;;;;;79.47;44.38;;;4.00;1.00;;;;;;4910766;29;20098;-80
2023/03/17 07:13:34;;;;;;;80.05;42.50;;;3.90;1.00;;;;;;4918386;29;20076;-80
2023/03/17 07:16:01;;;;;;;74.40;39.75;;;3.90;1.00;;;;;;4923127;29;20055;-80
2023/03/17 07:18:32;;;;;;;63.22;38.65;;;4.10;1.00;;;;;;4921426;29;20056;-79
2023/03/17 07:21:01;;;;;;;65.72;40.20;;;4.20;1.00;;;;;;4929390;29;20052;-82
2023/03/17 07:23:30;;;;;;;64.70;37.17;;;4.40;1.00;;;;;;4925756;29;20087;-80
2023/03/17 07:25:57;;;;;;;53.83;32.53;;;4.30;1.00;;;;;;4912901;29;20052;-82
2023/03/17 07:28:27;;;;;;;68.90;36.60;;;4.50;1.00;;;;;;4907880;29;20138;-81
2023/03/17 07:30:59;;;;;;;56.15;33.30;;;4.60;1.00;;;;;;4930567;29;20052;-79
2023/03/17 07:33:29;;;;;;;56.65;32.78;;;4.70;1.00;;;;;;4925432;29;20062;-81
2023/03/17 07:35:57;;;;;;;57.60;32.60;;;4.80;1.00;;;;;;4917283;29;20147;-79
2023/03/17 07:38:25;;;;;;;59.33;33.90;;;4.80;1.00;;;;;;4928196;29;20078;-78
2023/03/17 07:40:52;;;;;;;58.40;33.45;;;5.00;1.00;;;;;;4909451;29;20047;-78
2023/03/17 07:43:20;;;;;;;52.83;30.55;;;5.00;1.00;;;;;;4927603;29;20043;-78
2023/03/17 07:45:47;;;;;;;52.97;30.88;;;5.20;1.00;;;;;;4918107;29;20135;-78
2023/03/17 07:48:16;;;;;;;50.08;30.85;;;5.50;1.00;;;;;;4923253;29;20048;-78
2023/03/17 07:50:44;;;;;;;56.78;31.17;;;5.80;1.00;;;;;;4924508;29;20403;-79
2023/03/17 07:53:12;;;;;;;57.25;34.38;;;6.00;1.00;;;;;;4927057;29;20048;-78
2023/03/17 07:55:40;;;;;;;58.22;33.60;;;6.20;1.00;;;;;;4909811;29;20607;-78
2023/03/17 07:58:08;;;;;;;60.05;32.15;;;6.40;99.90;;;;;;4926195;29;20142;-78
2023/03/17 08:00:35;;;;;;;56.15;31.80;;;6.40;99.90;;;;;;4910678;29;20052;-77
2023/03/17 08:03:03;;;;;;;56.40;33.00;;;6.60;99.90;;;;;;4929499;29;20080;-78
2023/03/17 08:05:33;;;;;;;57.65;31.42;;;6.70;99.90;;;;;;4934889;29;20028;-80
2023/03/17 08:08:00;;;;;;;54.35;30.63;;;6.90;99.90;;;;;;4930399;29;20078;-78
2023/03/17 08:10:28;;;;;;;47.15;28.55;;;7.00;99.90;;;;;;4923527;29;20076;-78
2023/03/17 08:12:56;;;;;;;52.85;29.27;;;7.20;99.90;;;;;;4925887;29;20123;-79
2023/03/17 08:15:24;;;;;;;53.80;29.85;;;7.40;99.90;;;;;;4924681;29;20142;-77
2023/03/17 08:17:52;;;;;;;49.67;28.67;;;7.50;99.90;;;;;;4921333;29;20044;-78
2023/03/17 08:20:20;;;;;;;50.30;27.65;;;7.70;99.90;;;;;;4924693;29;20048;-78
2023/03/17 08:22:50;;;;;;;40.85;21.77;;;7.90;99.90;;;;;;4906685;29;20523;-77
2023/03/17 08:25:17;;;;;;;30.08;18.02;;;8.00;99.90;;;;;;4906229;29;20138;-78
2023/03/17 08:27:45;;;;;;;42.08;23.58;;;7.90;99.90;;;;;;4925051;29;20075;-80
2023/03/17 08:30:15;;;;;;;31.60;18.00;;;8.10;99.90;;;;;;4923693;29;20435;-79
2023/03/17 08:32:42;;;;;;;30.30;17.23;;;8.30;99.90;;;;;;4927023;29;20248;-78
2023/03/17 08:35:14;;;;;;;32.92;19.13;;;8.50;99.90;;;;;;4928856;29;20531;-81
2023/03/17 08:37:44;;;;;;;40.78;23.13;;;8.60;99.90;;;;;;4909126;29;20078;-79
2023/03/17 08:40:21;;;;;;;38.05;22.77;;;8.80;99.90;;;;;;4928811;29;20036;-80
2023/03/17 08:42:49;;;;;;;38.40;23.92;;;8.80;99.90;;;;;;4925720;29;20035;-78
2023/03/17 08:45:18;;;;;;;43.30;23.40;;;8.70;99.90;;;;;;4925532;29;20043;-81
2023/03/17 08:47:46;;;;;;;30.63;18.33;;;8.50;99.90;;;;;;4907695;29;20056;-80
2023/03/17 08:50:18;;;;;;;34.20;20.15;;;8.40;99.90;;;;;;5208397;23;20064;-74
2023/03/17 08:52:47;;;;;;;29.02;15.93;;;8.30;99.90;;;;;;4918930;29;20403;-74
2023/03/17 08:55:15;;;;;;;31.52;18.92;;;8.10;99.90;;;;;;4922148;29;20087;-74
2023/03/17 08:57:46;;;;;;;32.95;20.30;;;8.20;99.90;;;;;;4922806;29;20044;-75
2023/03/17 09:00:19;;;;;;;32.38;18.42;;;8.30;99.90;;;;;;4920156;29;20111;-74
2023/03/17 09:02:47;;;;;;;31.60;18.63;;;8.40;99.90;;;;;;4908692;29;20040;-75
2023/03/17 09:05:17;;;;;;;28.52;17.27;;;8.60;99.90;;;;;;4907217;29;20599;-74
2023/03/17 09:07:44;;;;;;;25.55;15.02;;;8.70;99.90;;;;;;4907049;29;20100;-74
2023/03/17 09:10:15;;;;;;;31.15;18.13;;;8.80;99.90;;;;;;4905305;29;20056;-75
2023/03/17 09:12:44;;;;;;;28.95;16.80;;;8.80;99.90;;;;;;4909677;29;20464;-75
2023/03/17 09:15:12;;;;;;;31.88;18.42;;;8.70;99.90;;;;;;4906713;29;20050;-75
2023/03/17 09:17:42;;;;;;;26.38;17.00;;;8.80;99.90;;;;;;4908083;29;20093;-74
2023/03/17 09:20:12;;;;;;;28.73;17.83;;;8.90;99.90;;;;;;4906339;29;20553;-75
2023/03/17 09:22:40;;;;;;;24.02;13.73;;;9.00;99.90;;;;;;4906860;29;20037;-75
2023/03/17 09:25:08;;;;;;;34.20;21.02;;;9.10;99.90;;;;;;4912911;29;20136;-74
2023/03/17 09:27:36;;;;;;;23.90;14.35;;;9.00;99.90;;;;;;4906884;29;20040;-74
2023/03/17 09:30:06;;;;;;;18.02;9.77;;;9.10;99.90;;;;;;4906696;29;20056;-75
2023/03/17 09:32:33;;;;;;;18.58;10.07;;;9.20;99.90;;;;;;4905795;29;20071;-74
2023/03/17 09:35:00;;;;;;;14.65;6.68;;;9.30;99.90;;;;;;4905701;29;20040;-74
2023/03/17 09:37:28;;;;;;;12.77;7.43;;;9.30;99.90;;;;;;4904378;29;20519;-74
2023/03/17 09:39:56;;;;;;;18.50;7.70;;;9.20;99.90;;;;;;4910033;29;20055;-74
2023/03/17 09:42:38;;;;;;;15.43;7.45;;;9.30;99.90;;;;;;4905874;29;20488;-74
2023/03/17 09:45:23;;;;;;;16.27;8.32;;;9.40;99.90;;;;;;4905802;29;20044;-75
2023/03/17 09:48:12;;;;;;;13.32;7.68;;;9.40;99.90;;;;;;4906140;29;20092;-74
2023/03/17 09:50:45;;;;;;;10.77;6.47;;;9.40;99.90;;;;;;4907299;29;20056;-76
2023/03/17 09:53:18;;;;;;;10.60;6.72;;;9.40;99.90;;;;;;4909823;29;20100;-73
2023/03/17 09:55:50;;;;;;;13.23;6.40;;;9.60;99.90;;;;;;4912859;29;20048;-75
2023/03/17 09:58:22;;;;;;;13.98;7.65;;;9.70;99.90;;;;;;4906935;29;20048;-75
2023/03/17 10:00:51;;;;;;;13.27;7.03;;;9.70;99.90;;;;;;4905709;29;20036;-74
2023/03/17 10:03:26;;;;;;;14.13;7.72;;;9.80;99.90;;;;;;4904979;29;20452;-75
2023/03/17 10:05:58;;;;;;;15.05;7.68;;;9.90;99.90;;;;;;4905614;29;20549;-76
2023/03/17 10:08:31;;;;;;;17.85;9.98;;;9.80;99.90;;;;;;4916156;29;20641;-74
2023/03/17 10:11:05;;;;;;;22.40;10.27;;;9.90;99.90;;;;;;4916674;29;20041;-75
2023/03/17 10:13:51;;;;;;;20.73;10.27;;;9.80;99.90;;;;;;4918260;29;20116;-75
2023/03/17 10:16:24;;;;;;;12.95;8.15;;;10.00;99.90;;;;;;4917260;29;20078;-75
2023/03/17 10:18:55;;;;;;;15.32;9.00;;;10.10;99.90;;;;;;4906802;29;20103;-74
2023/03/17 10:21:28;;;;;;;18.15;9.57;;;10.10;99.90;;;;;;4907060;29;20044;-76
2023/03/17 10:23:58;;;;;;;18.60;10.38;;;10.10;99.90;;;;;;4915492;29;20048;-74
2023/03/17 10:26:29;;;;;;;17.65;9.65;;;10.20;99.90;;;;;;4913088;29;20047;-74
2023/03/17 10:28:58;;;;;;;16.95;8.95;;;10.30;99.90;;;;;;4906598;29;20044;-76
2023/03/17 10:31:33;;;;;;;16.25;8.82;;;10.30;99.90;;;;;;4908452;29;20477;-75
2023/03/17 10:34:13;;;;;;;16.77;9.53;;;10.30;99.90;;;;;;4905744;29;20041;-76
2023/03/17 10:36:43;;;;;;;17.60;9.80;;;10.30;99.90;;;;;;4905878;29;20104;-74
2023/03/17 10:39:13;;;;;;;21.05;10.63;;;10.40;99.90;;;;;;4905222;29;20036;-75
2023/03/17 10:41:48;;;;;;;16.27;9.35;;;10.50;99.90;;;;;;4907437;29;20036;-77
2023/03/17 10:44:23;;;;;;;16.88;9.43;;;10.60;99.90;;;;;;4903791;29;20044;-74
2023/03/17 10:46:55;;;;;;;13.87;8.37;;;10.40;99.90;;;;;;4906746;29;20055;-75
2023/03/17 10:49:25;;;;;;;11.65;6.75;;;10.50;99.90;;;;;;4900914;29;20131;-75
2023/03/17 10:51:54;;;;;;;15.38;7.40;;;10.50;99.90;;;;;;4902071;29;20411;-75
2023/03/17 10:54:25;;;;;;;10.90;6.75;;;10.60;99.90;;;;;;4904732;29;20429;-74
2023/03/17 10:57:01;;;;;;;13.68;7.03;;;10.50;99.90;;;;;;4906678;29;20036;-74
2023/03/17 10:59:31;;;;;;;15.75;7.93;;;10.40;99.90;;;;;;4905587;29;20055;-75
2023/03/17 11:02:28;;;;;;;14.40;8.57;;;10.50;99.90;;;;;;4899853;29;20055;-74
2023/03/17 11:05:00;;;;;;;23.20;8.27;;;10.60;99.90;;;;;;4901145;29;20045;-74
2023/03/17 11:07:34;;;;;;;13.93;6.18;;;10.60;99.90;;;;;;4905254;29;20048;-74
2023/03/17 11:10:03;;;;;;;15.25;7.80;;;10.60;99.90;;;;;;4903329;29;20041;-75
2023/03/17 11:12:38;;;;;;;10.27;6.75;;;10.60;99.90;;;;;;4906223;29;20058;-75
2023/03/17 11:15:11;;;;;;;12.10;7.28;;;10.60;99.90;;;;;;4901137;29;20040;-74
2023/03/17 11:17:48;;;;;;;13.73;6.88;;;10.70;99.90;;;;;;4908813;29;20056;-76
2023/03/17 11:20:39;;;;;;;14.15;7.25;;;10.60;99.90;;;;;;4906424;29;20044;-74
2023/03/17 11:23:15;;;;;;;17.40;8.82;;;10.70;99.90;;;;;;4907129;29;20120;-73
2023/03/17 11:25:46;;;;;;;18.88;10.68;;;10.80;99.90;;;;;;4904229;29;20492;-74
2023/03/17 11:28:19;;;;;;;13.45;7.78;;;10.90;99.90;;;;;;4905792;29;20417;-75
2023/03/17 11:30:58;;;;;;;13.55;7.30;;;11.10;99.90;;;;;;4904168;29;20052;-74
2023/03/17 11:33:35;;;;;;;12.80;7.28;;;11.20;99.90;;;;;;4906664;29;20062;-73
2023/03/17 11:36:14;;;;;;;12.07;6.47;;;11.20;99.90;;;;;;4905564;29;20052;-74
2023/03/17 11:38:57;;;;;;;16.88;9.48;;;11.30;99.90;;;;;;4919629;29;20053;-75
2023/03/17 11:41:43;;;;;;;13.45;8.25;;;11.30;99.90;;;;;;4904926;29;20137;-75
2023/03/17 11:44:41;;;;;;;11.85;7.18;;;11.40;99.90;;;;;;4904721;29;20051;-73
2023/03/17 11:47:22;;;;;;;12.35;6.95;;;11.50;99.90;;;;;;4896054;29;20056;-74
2023/03/17 11:49:55;;;;;;;13.48;5.88;;;11.50;99.90;;;;;;4906518;29;20085;-73
2023/03/17 11:52:28;;;;;;;11.23;5.75;;;11.50;99.90;;;;;;4924025;29;20049;-76
2023/03/17 11:55:03;;;;;;;15.13;6.82;;;11.50;99.90;;;;;;4906928;29;20132;-75
2023/03/17 11:57:37;;;;;;;12.65;6.20;;;11.50;99.90;;;;;;4908699;29;20128;-75
2023/03/17 12:00:11;;;;;;;12.20;6.15;;;11.70;99.90;;;;;;4905544;29;20053;-73
2023/03/17 12:02:43;;;;;;;10.13;5.03;;;11.70;99.90;;;;;;4906723;29;20532;-75
2023/03/17 12:05:15;;;;;;;10.98;5.18;;;11.70;99.90;;;;;;4907338;29;20127;-75
2023/03/17 12:07:47;;;;;;;9.52;5.45;;;11.60;99.90;;;;;;4909607;29;20036;-74
2023/03/17 12:10:21;;;;;;;10.15;5.70;;;11.70;99.90;;;;;;4912052;29;20040;-74
2023/03/17 12:12:54;;;;;;;15.13;5.78;;;11.70;99.90;;;;;;4925643;29;20055;-74
2023/03/17 12:15:29;;;;;;;7.82;4.55;;;11.70;99.90;;;;;;4904290;29;20560;-75
2023/03/17 12:18:00;;;;;;;28.73;17.75;;;11.50;99.90;;;;;;4901302;29;20048;-74
2023/03/17 12:20:38;;;;;;;10.07;5.53;;;11.40;99.90;;;;;;4902998;29;20059;-75
2023/03/17 12:23:13;;;;;;;9.60;5.57;;;11.40;99.90;;;;;;4919946;28;20047;-75
2023/03/17 12:25:49;;;;;;;10.55;5.47;;;11.40;99.90;;;;;;4940549;29;20039;-75
2023/03/17 12:28:21;;;;;;;10.43;4.88;;;11.40;99.90;;;;;;4941539;29;20051;-75
2023/03/17 12:30:54;;;;;;;11.05;5.35;;;11.50;99.90;;;;;;4940137;29;20511;-73
2023/03/17 12:33:26;;;;;;;11.82;6.32;;;11.50;99.90;;;;;;4951783;29;20106;-75
2023/03/17 12:35:57;;;;;;;11.25;5.38;;;11.50;99.90;;;;;;4958745;29;20040;-75
2023/03/17 12:38:34;;;;;;;11.10;5.15;;;11.50;99.90;;;;;;4940620;29;20065;-74
2023/03/17 12:41:47;;;;;;;14.75;6.20;;;11.60;99.90;;;;;;4939412;29;20067;-74
2023/03/17 12:44:29;;;;;;;11.15;6.15;;;11.70;99.90;;;;;;4912451;28;20047;-75
2023/03/17 12:47:19;;;;;;;9.38;4.88;;;11.70;99.90;;;;;;4941501;29;20046;-74
2023/03/17 12:50:06;;;;;;;7.60;4.68;;;11.70;99.90;;;;;;4942624;29;20407;-74
2023/03/17 12:52:45;;;;;;;10.20;4.95;;;11.60;99.90;;;;;;4939939;29;20058;-74